Time;durP1;ratioP1;P1;durP2;ratioP2;P2;SDS_P1;SDS_P2;PMS_P1;PMS_P2;Temp;Humidity;BMP_temperature;BMP_pressure;BME280_temperature;BME280_humidity;BME280_pressure;Samples;Min_cycle;Max_cycle;Signal;HPM_P1;HPM_P2
2023/10/13 00:01:52;;;;;;;8.30;2.50;;;17.80;99.90;;;17.68;75.74;97327.81;4998713;28;20030;-37
2023/10/13 00:04:22;;;;;;;6.53;2.42;;;17.80;99.90;;;17.69;74.58;97322.38;5003614;28;20026;-37
2023/10/13 00:06:48;;;;;;;5.85;2.47;;;17.80;99.90;;;17.65;74.31;97310.19;4998902;28;20033;-38
2023/10/13 00:09:14;;;;;;;3.72;2.50;;;17.80;99.90;;;17.69;73.80;97325.03;5002314;28;20099;-38
2023/10/13 00:11:44;;;;;;;9.48;3.22;;;17.80;99.90;;;17.56;73.33;97303.66;4999900;28;20402;-37
2023/10/13 00:14:15;;;;;;;4.25;2.45;;;17.80;99.90;;;17.61;72.77;97321.19;5003540;28;20042;-38
2023/10/13 00:16:43;;;;;;;3.97;2.38;;;17.70;99.90;;;17.55;72.90;97317.09;4995291;28;20064;-37
2023/10/13 00:19:13;;;;;;;6.35;2.58;;;17.60;99.90;;;17.46;74.56;97317.69;5001906;28;20030;-38
2023/10/13 00:21:39;;;;;;;5.03;2.67;;;17.50;99.90;;;17.33;75.90;97315.84;5001737;28;20585;-37
2023/10/13 00:24:12;;;;;;;9.00;2.50;;;17.40;99.90;;;17.24;73.86;97311.09;5003630;28;20522;-38
2023/10/13 00:26:38;;;;;;;5.25;2.55;;;17.40;99.90;;;17.16;74.79;97316.09;5002334;28;20056;-38
2023/10/13 00:31:36;;;;;;;4.78;2.60;;;17.20;99.90;;;16.95;76.46;97313.84;4988760;28;20034;-38
2023/10/13 00:34:12;;;;;;;8.27;2.78;;;17.10;99.90;;;16.88;76.75;97319.69;5001202;28;20025;-39
2023/10/13 00:39:28;;;;;;;8.25;2.70;;;17.00;99.90;;;16.74;75.22;97297.41;5004207;28;20360;-37
2023/10/13 00:41:58;;;;;;;5.55;2.60;;;16.90;99.90;;;16.70;75.74;97297.69;5004309;28;20112;-37
2023/10/13 00:47:48;;;;;;;5.55;2.90;;;16.70;99.90;;;16.60;76.51;97305.44;4990437;28;20512;-37
2023/10/13 00:50:12;;;;;;;4.45;2.50;;;16.80;99.90;;;16.57;79.12;97309.13;5003155;28;20279;-37
2023/10/13 00:52:41;;;;;;;3.90;2.40;;;16.70;99.90;;;16.53;78.68;97312.09;5004106;28;20038;-37
2023/10/13 00:55:09;;;;;;;5.90;2.40;;;16.60;99.90;;;16.52;76.43;97308.53;4995467;28;20038;-38
2023/10/13 00:57:36;;;;;;;7.22;2.38;;;16.60;99.90;;;16.50;75.39;97305.13;4995934;28;20378;-38
2023/10/13 01:00:12;;;;;;;6.10;2.80;;;16.70;99.90;;;16.55;76.12;97305.69;4990784;28;20025;-37
2023/10/13 01:02:38;;;;;;;4.53;2.88;;;16.70;99.90;;;16.55;75.06;97315.50;4995694;28;20041;-38
2023/10/13 01:05:11;;;;;;;6.03;2.80;;;16.60;99.90;;;16.56;74.44;97320.75;5001279;28;20038;-37
2023/10/13 01:07:37;;;;;;;4.65;2.80;;;16.70;99.90;;;16.60;74.05;97319.59;5004203;28;20025;-37
2023/10/13 01:10:14;;;;;;;7.15;3.08;;;16.70;99.90;;;16.61;73.56;97310.63;5003047;28;20493;-38
2023/10/13 01:12:42;;;;;;;4.95;2.88;;;16.70;99.90;;;16.61;74.35;97307.97;4998435;28;20037;-37
2023/10/13 01:15:10;;;;;;;6.05;2.55;;;16.70;99.90;;;16.63;73.83;97307.03;4997385;28;20395;-39
2023/10/13 01:17:36;;;;;;;5.03;2.90;;;16.70;99.90;;;16.61;73.17;97288.47;4997657;28;20079;-39
2023/10/13 01:20:04;;;;;;;4.50;2.42;;;16.70;99.90;;;16.66;72.73;97290.88;5001382;28;20256;-37
2023/10/13 01:22:32;;;;;;;5.88;2.80;;;16.80;99.90;;;16.63;73.73;97291.91;5003344;28;20025;-38
2023/10/13 01:25:13;;;;;;;4.55;2.50;;;16.70;99.90;;;16.64;73.18;97298.09;5006639;28;20029;-38
2023/10/13 01:27:40;;;;;;;7.32;2.95;;;16.70;99.90;;;16.64;72.67;97298.94;5001773;28;20033;-38
2023/10/13 01:30:10;;;;;;;7.15;2.80;;;16.70;99.90;;;16.62;73.87;97287.53;4997732;28;20029;-37
2023/10/13 01:32:45;;;;;;;4.82;2.60;;;16.70;99.90;;;16.54;75.91;97277.34;5001944;28;20377;-38
2023/10/13 01:35:10;;;;;;;4.18;2.78;;;16.60;99.90;;;16.50;76.76;97280.31;5001274;28;20571;-38
2023/10/13 01:37:36;;;;;;;5.90;2.92;;;16.60;99.90;;;16.46;76.56;97279.66;5012720;28;20038;-37
2023/10/13 01:40:02;;;;;;;6.50;2.80;;;16.60;99.90;;;16.41;75.80;97279.94;4997618;28;20034;-37
2023/10/13 01:42:30;;;;;;;5.50;2.47;;;16.50;99.90;;;16.40;76.46;97280.03;4999793;28;20041;-38
2023/10/13 01:45:05;;;;;;;7.38;3.00;;;16.50;99.90;;;16.42;74.42;97278.16;5000104;28;20379;-37
2023/10/13 01:47:32;;;;;;;4.50;2.70;;;16.60;99.90;;;16.43;74.55;97279.84;5003932;28;20144;-38
2023/10/13 01:50:06;;;;;;;6.20;2.92;;;16.50;99.90;;;16.38;77.50;97277.50;5003925;28;20037;-37
2023/10/13 01:52:32;;;;;;;4.38;2.92;;;16.50;99.90;;;16.38;76.62;97288.13;5005544;28;20322;-37
2023/10/13 01:55:01;;;;;;;5.80;2.40;;;16.50;99.90;;;16.35;78.21;97277.66;5000612;28;20589;-37
2023/10/13 01:57:28;;;;;;;3.97;2.75;;;16.50;99.90;;;16.30;79.76;97276.25;4996075;28;20991;-37
2023/10/13 01:59:56;;;;;;;6.40;2.75;;;16.40;99.90;;;16.22;80.68;97277.59;4998527;28;20176;-38
2023/10/13 02:02:31;;;;;;;7.78;3.45;;;16.40;99.90;;;16.14;80.58;97271.88;5014479;28;20052;-38
2023/10/13 02:04:58;;;;;;;6.32;2.95;;;16.30;99.90;;;16.12;80.42;97278.25;4982186;28;20052;-39
2023/10/13 02:07:29;;;;;;;5.82;2.45;;;16.30;99.90;;;16.09;82.07;97265.97;4999834;28;20041;-38
2023/10/13 02:09:56;;;;;;;8.00;2.90;;;16.20;99.90;;;15.96;82.54;97244.59;4999658;28;20049;-37
2023/10/13 02:15:06;;;;;;;5.47;2.83;;;16.10;99.90;;;15.99;82.21;97259.53;4999854;28;20044;-37
2023/10/13 02:17:41;;;;;;;6.20;2.63;;;16.10;99.90;;;15.98;82.28;97263.13;4999049;28;20088;-38
2023/10/13 02:20:10;;;;;;;5.70;2.70;;;16.10;99.90;;;15.91;82.69;97253.81;4997655;28;20045;-39
2023/10/13 02:22:38;;;;;;;7.03;3.20;;;16.10;99.90;;;15.95;83.67;97253.53;4995270;28;20521;-37
2023/10/13 02:25:05;;;;;;;6.32;2.78;;;16.10;99.90;;;15.91;84.08;97243.16;4992497;28;20337;-37
2023/10/13 02:27:41;;;;;;;8.60;2.90;;;16.00;99.90;;;15.93;82.26;97246.59;4996753;28;20042;-37
2023/10/13 02:30:13;;;;;;;8.68;3.10;;;16.00;99.90;;;15.91;82.65;97244.00;4996420;28;20072;-39
2023/10/13 02:32:43;;;;;;;6.65;2.47;;;16.00;99.90;;;15.88;83.57;97235.38;5003302;28;20115;-37
2023/10/13 02:35:15;;;;;;;6.95;3.22;;;16.00;99.90;;;15.85;83.75;97233.75;5004741;28;21013;-37
2023/10/13 02:37:43;;;;;;;6.95;3.22;;;16.00;99.90;;;15.80;84.22;97234.03;5000703;28;20034;-37
2023/10/13 02:40:11;;;;;;;7.00;3.20;;;16.00;99.90;;;15.82;84.48;97232.13;5000664;28;20338;-37
2023/10/13 02:42:38;;;;;;;6.20;3.05;;;15.90;99.90;;;15.78;86.22;97227.09;4999944;28;20029;-38
2023/10/13 02:45:05;;;;;;;7.50;2.95;;;15.90;99.90;;;15.77;84.52;97225.38;4998412;28;20628;-40
2023/10/13 02:47:31;;;;;;;6.25;2.80;;;15.90;99.90;;;15.77;84.51;97234.22;4996596;28;20034;-38
2023/10/13 02:50:11;;;;;;;6.13;2.80;;;15.90;99.90;;;15.75;84.31;97230.78;5002534;28;20118;-37
2023/10/13 02:52:41;;;;;;;6.25;2.65;;;15.90;99.90;;;15.75;84.32;97219.31;4997593;28;20041;-38
2023/10/13 02:55:10;;;;;;;9.18;3.60;;;15.90;99.90;;;15.71;84.66;97215.09;4999691;28;20037;-37
2023/10/13 02:57:36;;;;;;;6.78;3.20;;;15.90;99.90;;;15.64;83.43;97204.81;4996369;28;20068;-37
2023/10/13 03:00:16;;;;;;;8.25;2.88;;;15.90;99.90;;;15.72;83.16;97216.78;5000406;28;20038;-37
2023/10/13 03:02:45;;;;;;;4.95;2.45;;;15.90;99.90;;;15.70;82.39;97211.56;5001934;28;20537;-37
2023/10/13 03:05:13;;;;;;;4.47;3.00;;;15.90;99.90;;;15.71;82.63;97215.09;5005397;28;20032;-37
2023/10/13 03:07:43;;;;;;;6.18;3.03;;;15.80;99.90;;;15.64;85.05;97218.09;5003729;28;20036;-37
2023/10/13 03:10:09;;;;;;;7.45;3.00;;;15.80;99.90;;;15.62;84.75;97208.53;5007036;28;20121;-38
2023/10/13 03:12:39;;;;;;;7.75;2.80;;;15.80;99.90;;;15.58;85.79;97209.66;5001787;28;20448;-37
2023/10/13 03:15:13;;;;;;;6.35;2.63;;;15.70;99.90;;;15.54;85.37;97206.34;5000098;28;20068;-37
2023/10/13 03:17:43;;;;;;;7.25;2.80;;;15.70;99.90;;;15.54;86.21;97202.81;5001309;28;20076;-39
2023/10/13 03:20:16;;;;;;;9.57;3.00;;;15.70;99.90;;;15.51;85.87;97203.00;4995738;28;20029;-37
2023/10/13 03:22:46;;;;;;;5.93;2.95;;;15.60;99.90;;;15.50;86.51;97201.28;4998804;28;20030;-37
2023/10/13 03:25:21;;;;;;;6.10;2.97;;;15.60;99.90;;;15.37;88.16;97187.88;5003322;28;20026;-37
2023/10/13 03:30:20;;;;;;;4.73;2.47;;;15.60;99.90;;;15.37;88.28;97188.72;4994546;28;20022;-37
2023/10/13 03:32:54;;;;;;;5.35;2.90;;;15.50;99.90;;;15.35;88.27;97195.94;5003617;28;20298;-37
2023/10/13 03:35:37;;;;;;;4.63;2.78;;;15.50;99.90;;;15.34;88.62;97190.72;5001997;28;20222;-38
2023/10/13 03:38:04;;;;;;;5.82;3.15;;;15.50;99.90;;;15.32;89.34;97198.78;5006650;28;20036;-37
2023/10/13 03:43:04;;;;;;;4.50;2.70;;;15.40;99.90;;;15.25;89.48;97195.66;5002120;28;20025;-37
2023/10/13 03:45:39;;;;;;;6.13;3.00;;;15.40;99.90;;;15.23;92.43;97191.34;5004332;28;20034;-38
2023/10/13 03:51:03;;;;;;;5.07;2.85;;;15.30;99.90;;;15.09;94.83;97184.19;5003411;28;20026;-37
2023/10/13 03:53:33;;;;;;;4.60;2.80;;;15.30;99.90;;;15.10;94.08;97190.38;5005752;28;20021;-37
2023/10/13 03:56:08;;;;;;;10.25;3.55;;;15.30;99.90;;;15.05;95.58;97187.97;5000682;28;20034;-37
2023/10/13 03:58:36;;;;;;;6.22;3.33;;;15.20;99.90;;;15.03;93.65;97180.09;5003938;28;20035;-37
2023/10/13 04:01:03;;;;;;;5.10;2.83;;;15.20;99.90;;;15.06;92.92;97185.25;5005176;28;20014;-37
2023/10/13 04:03:42;;;;;;;5.13;2.83;;;15.20;99.90;;;15.07;92.65;97183.44;5002645;28;20140;-38
2023/10/13 04:06:16;;;;;;;7.15;3.25;;;15.30;99.90;;;15.15;89.80;97191.81;5001871;28;20037;-37
2023/10/13 04:08:48;;;;;;;6.93;3.17;;;15.30;99.90;;;15.11;91.49;97177.00;4993727;28;20534;-38
2023/10/13 04:11:52;;;;;;;6.97;2.83;;;15.30;99.90;;;15.14;90.65;97183.94;4991580;28;20426;-37
2023/10/13 04:14:23;;;;;;;5.53;3.10;;;15.30;99.90;;;15.14;89.88;97191.91;4994699;28;20084;-37
2023/10/13 04:16:54;;;;;;;9.85;2.90;;;15.30;99.90;;;15.17;88.77;97189.06;4996609;28;20030;-38
2023/10/13 04:19:23;;;;;;;7.82;3.42;;;15.30;99.90;;;15.20;87.75;97181.78;4996773;28;20053;-37
2023/10/13 04:21:59;;;;;;;9.15;3.63;;;15.30;99.90;;;15.21;85.75;97183.47;5002027;28;20026;-37
2023/10/13 04:25:00;;;;;;;6.15;3.00;;;15.40;99.90;;;15.24;87.34;97185.09;4999649;28;20026;-37
2023/10/13 04:27:39;;;;;;;6.30;3.05;;;15.40;99.90;;;15.29;85.91;97188.34;4993819;28;20051;-37
2023/10/13 04:32:38;;;;;;;7.18;3.00;;;15.40;99.90;;;15.33;84.53;97183.72;4990691;28;20064;-38
2023/10/13 04:37:58;;;;;;;6.15;3.45;;;15.50;99.90;;;15.22;85.39;97157.78;5001079;28;20510;-37
2023/10/13 04:40:24;;;;;;;5.18;2.60;;;15.50;99.90;;;15.32;84.93;97179.34;4996888;28;20072;-38
2023/10/13 04:42:56;;;;;;;6.47;2.90;;;15.50;99.90;;;15.33;86.11;97171.28;4996883;28;20044;-37
2023/10/13 04:45:38;;;;;;;6.40;3.03;;;15.50;99.90;;;15.30;84.39;97159.97;4998200;28;20070;-37
2023/10/13 04:48:17;;;;;;;9.60;3.35;;;15.50;99.90;;;15.40;82.78;97167.31;4997977;28;20292;-37
2023/10/13 04:50:47;;;;;;;8.27;2.88;;;15.50;99.90;;;15.38;80.92;97142.63;5004310;28;20044;-37
2023/10/13 04:59:17;;;;;;;5.93;3.10;;;15.70;99.90;;;15.45;83.23;97162.56;5009462;28;20046;-36
2023/10/13 05:04:22;;;;;;;7.18;2.83;;;15.60;99.90;;;15.33;85.80;97159.81;4997119;28;20045;-37
2023/10/13 05:46:20;;;;;;;6.07;2.85;;;15.50;99.90;;;15.37;81.13;97134.75;4953374;28;20391;-36
2023/10/13 05:48:52;;;;;;;5.85;3.03;;;15.50;99.90;;;15.29;82.00;97132.56;4953812;28;20081;-37
2023/10/13 06:30:04;;;;;;;7.50;3.78;;;16.50;99.90;;;16.37;84.33;97161.34;4990346;28;20121;-40
2023/10/13 06:32:30;;;;;;;5.50;2.58;;;16.50;99.90;;;16.37;84.42;97157.81;4989223;28;20145;-37
2023/10/13 06:35:07;;;;;;;6.35;3.30;;;16.60;99.90;;;16.45;85.81;97163.50;4994743;28;20029;-37
2023/10/13 06:37:34;;;;;;;5.03;2.97;;;16.60;99.90;;;16.51;83.68;97152.47;4994286;28;20038;-39
2023/10/13 06:40:25;;;;;;;6.85;2.97;;;16.70;99.90;;;16.58;80.35;97155.56;4996405;28;20026;-38
2023/10/13 06:43:03;;;;;;;5.63;2.78;;;16.70;99.90;;;16.63;79.57;97149.94;5001680;28;20097;-38
2023/10/13 06:45:35;;;;;;;5.20;2.88;;;16.80;99.90;;;16.67;79.94;97146.13;4997393;28;20044;-39
2023/10/13 06:48:01;;;;;;;7.15;3.03;;;16.80;99.90;;;16.68;78.25;97150.50;5001644;28;20030;-38
2023/10/13 06:50:28;;;;;;;7.50;2.80;;;16.80;99.90;;;16.62;77.52;97149.09;4998207;28;20041;-37
2023/10/13 06:52:54;;;;;;;9.32;3.08;;;16.80;99.90;;;16.58;79.15;97153.78;4998305;28;20110;-37
2023/10/13 06:55:35;;;;;;;6.97;2.95;;;16.70;99.90;;;16.47;80.31;97144.75;4997665;28;20445;-37
2023/10/13 06:58:06;;;;;;;5.40;3.08;;;16.70;99.90;;;16.42;82.76;97145.06;5002363;28;20041;-37
2023/10/13 07:00:37;;;;;;;6.90;2.77;;;16.60;99.90;;;16.35;86.19;97146.44;5000363;28;20069;-37
2023/10/13 07:03:17;;;;;;;6.30;3.50;;;16.50;99.90;;;16.28;85.92;97145.13;4997917;28;20034;-37
2023/10/13 07:05:43;;;;;;;8.48;3.55;;;16.50;99.90;;;16.27;84.98;97154.03;4997417;28;20033;-37
2023/10/13 07:08:14;;;;;;;7.68;3.40;;;16.40;99.90;;;16.28;84.68;97147.78;5000322;28;20371;-37
2023/10/13 07:10:52;;;;;;;6.47;3.30;;;16.40;99.90;;;16.29;85.70;97145.00;4994674;28;20026;-40
2023/10/13 07:13:19;;;;;;;5.10;3.17;;;16.50;99.90;;;16.31;86.12;97145.78;4992233;28;20021;-37
2023/10/13 07:15:45;;;;;;;7.45;3.35;;;16.50;99.90;;;16.35;85.53;97149.09;5001440;28;20037;-38
2023/10/13 07:18:17;;;;;;;8.07;3.13;;;16.50;99.90;;;16.41;85.02;97148.69;4986956;28;20588;-37
2023/10/13 07:20:45;;;;;;;7.22;3.00;;;16.60;99.90;;;16.41;87.03;97141.53;4995189;28;20029;-38
2023/10/13 07:23:17;;;;;;;9.38;3.38;;;16.60;99.90;;;16.46;86.68;97148.41;4994106;28;20057;-39
2023/10/13 07:26:02;;;;;;;8.18;3.30;;;16.60;99.90;;;16.46;86.03;97137.75;4996715;28;20034;-37
2023/10/13 07:28:30;;;;;;;9.32;3.05;;;16.70;99.90;;;16.57;86.52;97143.22;4997288;28;20383;-37
2023/10/13 07:33:25;;;;;;;13.85;3.75;;;16.80;99.90;;;16.79;75.32;97142.66;4994171;28;20602;-39
2023/10/13 07:36:50;;;;;;;13.93;3.60;;;16.90;99.90;;;16.96;74.65;97150.41;4999816;28;20041;-38
2023/10/13 07:39:09;;;;;;;5.68;2.85;;;17.20;99.90;;;17.11;73.46;97147.69;4996565;28;20790;-37
2023/10/13 07:41:36;;;;;;;9.60;3.38;;;17.30;99.90;;;17.27;67.67;97153.69;5000582;28;20061;-38
2023/10/13 07:44:04;;;;;;;8.88;3.45;;;17.40;99.30;;;17.49;64.21;97155.72;5001059;28;20053;-37
2023/10/13 07:46:32;;;;;;;4.70;3.08;;;17.60;98.30;;;17.59;65.87;97142.63;5001742;28;20130;-39
2023/10/13 07:49:08;;;;;;;7.15;2.83;;;17.70;98.30;;;17.68;63.68;97152.63;5001705;28;23615;-37
2023/10/13 07:51:44;;;;;;;7.78;3.15;;;17.80;98.00;;;17.79;65.38;97140.38;4994307;28;20045;-38
2023/10/13 07:54:18;;;;;;;5.18;2.75;;;17.90;98.30;;;17.91;63.21;97147.56;5005278;28;20030;-38
2023/10/13 07:56:44;;;;;;;6.45;2.95;;;18.10;98.00;;;18.09;60.53;97153.41;4997521;28;20042;-37
2023/10/13 07:59:09;;;;;;;8.02;3.42;;;18.20;97.30;;;18.25;58.75;97139.78;4998263;28;20076;-38
2023/10/13 08:01:35;;;;;;;6.97;3.00;;;18.40;96.80;;;18.41;56.37;97144.88;4999669;28;20363;-37
2023/10/13 08:04:04;;;;;;;6.85;2.97;;;18.50;96.20;;;18.54;56.54;97140.34;5003127;28;20018;-37
2023/10/13 08:06:30;;;;;;;8.95;3.40;;;18.70;96.10;;;18.72;54.38;97147.94;4993030;28;20052;-38
2023/10/13 08:09:07;;;;;;;4.90;2.63;;;18.80;95.40;;;18.82;54.59;97139.16;5000226;28;20033;-38
2023/10/13 08:11:39;;;;;;;13.27;3.20;;;19.00;95.50;;;18.93;55.70;97124.16;4995747;28;20045;-37
2023/10/13 08:14:17;;;;;;;8.52;2.80;;;19.10;96.30;;;19.16;53.46;97143.81;4985903;28;20453;-39
2023/10/13 08:16:59;;;;;;;5.63;2.95;;;19.30;95.00;;;19.25;52.81;97146.63;4985848;28;20045;-39
2023/10/13 08:19:27;;;;;;;11.68;3.40;;;19.40;94.60;;;19.40;50.38;97141.09;4988174;28;20616;-39
2023/10/13 08:21:59;;;;;;;8.18;2.55;;;19.50;93.60;;;19.55;51.82;97139.06;4994774;28;20044;-39
2023/10/13 08:25:20;;;;;;;10.63;2.90;;;19.70;94.30;;;19.58;50.45;97136.16;4994785;28;20041;-40
2023/10/13 08:42:52;;;;;;;10.98;2.78;;;20.40;92.40;;;20.51;46.90;97114.50;5010733;28;20084;-40
2023/10/13 08:50:52;;;;;;;11.70;3.40;;;20.80;91.40;;;20.98;44.90;97111.56;5005272;28;20152;-42
2023/10/13 08:53:45;;;;;;;6.57;2.97;;;21.00;90.40;;;21.19;44.21;97102.66;4998460;28;20111;-39
2023/10/13 08:56:18;;;;;;;;;;;21.20;90.30;;;21.34;43.93;97112.09;5005511;28;20048;-39
2023/10/13 09:01:48;;;;;;;7.20;2.88;;;21.40;89.10;;;21.39;43.58;97101.84;4999756;28;20044;-38
2023/10/13 09:04:22;;;;;;;8.43;2.50;;;21.40;89.30;;;21.50;43.48;97109.00;4997866;28;20075;-39
2023/10/13 09:12:35;;;;;;;12.20;4.32;;;21.70;90.00;;;21.71;43.44;97096.41;4992675;28;20034;-38
2023/10/13 09:17:48;;;;;;;7.55;2.72;;;21.80;87.40;;;22.01;41.08;97101.91;5014100;28;20039;-39
2023/10/13 09:25:35;;;;;;;5.75;2.92;;;22.20;84.30;;;22.37;40.22;97102.31;5003910;28;20087;-40
2023/10/13 09:28:15;;;;;;;7.55;2.58;;;22.30;84.20;;;22.44;40.10;97104.31;4995572;28;20038;-39
2023/10/13 09:30:52;;;;;;;6.97;2.72;;;22.40;84.00;;;22.53;39.55;97107.16;5010308;28;20120;-38
2023/10/13 09:33:33;;;;;;;8.57;2.85;;;22.50;83.00;;;22.60;40.28;97109.16;4988157;28;20066;-39
2023/10/13 09:36:06;;;;;;;4.20;2.22;;;22.50;83.40;;;22.63;39.23;97098.13;4992140;28;20038;-38
2023/10/13 09:38:40;;;;;;;6.70;2.60;;;22.60;82.10;;;22.71;39.09;97105.47;4994396;28;20703;-40
2023/10/13 09:41:20;;;;;;;9.15;2.88;;;22.60;82.20;;;22.72;38.84;97098.25;4987468;28;20038;-38
2023/10/13 09:43:46;;;;;;;6.18;2.90;;;22.70;81.30;;;22.75;38.59;97095.31;4992801;28;20365;-39
2023/10/13 09:46:26;;;;;;;12.73;3.35;;;22.70;80.60;;;22.82;38.76;97093.75;4997585;28;20040;-38
2023/10/13 09:49:08;;;;;;;7.65;3.03;;;22.80;81.00;;;22.87;39.23;97091.50;4986510;28;20538;-38
2023/10/13 09:51:34;;;;;;;6.85;2.97;;;22.80;81.40;;;22.91;38.33;97084.00;4990012;28;20033;-38
2023/10/13 09:54:20;;;;;;;6.45;3.08;;;22.90;80.30;;;22.94;38.24;97081.03;5004319;28;20503;-40
2023/10/13 09:56:55;;;;;;;6.95;2.65;;;22.90;80.30;;;22.95;38.29;97083.59;4997833;28;20654;-39
2023/10/13 09:59:34;;;;;;;6.10;2.75;;;23.00;80.90;;;23.07;38.38;97073.53;4991382;28;20121;-39
2023/10/13 10:02:08;;;;;;;10.00;2.90;;;23.00;80.20;;;23.11;37.79;97077.63;5002870;28;20022;-38
2023/10/13 10:04:45;;;;;;;6.97;2.55;;;23.10;79.50;;;23.12;38.10;97071.28;5007330;28;20034;-38
2023/10/13 10:07:10;;;;;;;6.22;3.05;;;23.10;79.80;;;23.10;37.93;97070.56;5002703;28;20048;-38
2023/10/13 10:09:37;;;;;;;5.95;2.65;;;23.10;78.90;;;23.13;38.32;97073.00;5001441;28;20406;-38
2023/10/13 10:12:37;;;;;;;10.45;2.72;;;23.10;80.10;;;23.24;38.70;97066.59;5004747;28;20026;-38
2023/10/13 10:15:35;;;;;;;8.80;2.72;;;23.20;79.30;;;23.33;37.75;97064.84;4991975;28;20054;-39
2023/10/13 10:18:04;;;;;;;7.95;2.70;;;23.30;79.10;;;23.35;37.84;97074.50;5002159;28;20053;-41
2023/10/13 10:20:42;;;;;;;7.78;3.05;;;23.30;78.50;;;23.35;37.79;97068.28;4996265;28;20048;-39
2023/10/13 10:23:21;;;;;;;4.45;2.60;;;23.40;78.80;;;23.28;37.70;97064.47;4998434;28;20465;-39
2023/10/13 10:25:51;;;;;;;5.13;2.40;;;23.30;78.50;;;23.01;37.65;97036.44;4984190;28;20401;-40
2023/10/13 10:28:19;;;;;;;6.45;2.70;;;23.20;78.30;;;23.13;38.04;97064.03;5008218;28;20484;-39
2023/10/13 10:30:45;;;;;;;10.48;2.80;;;23.10;78.40;;;23.12;37.45;97076.66;4989001;28;20446;-39
2023/10/13 10:33:12;;;;;;;7.15;3.10;;;23.10;78.50;;;23.10;39.83;97062.50;4994622;28;20065;-38
2023/10/13 10:35:43;;;;;;;8.35;2.78;;;23.10;80.60;;;23.11;38.34;97064.19;4995362;28;20036;-38
2023/10/13 10:38:23;;;;;;;11.18;2.70;;;23.00;79.50;;;23.13;38.21;97061.34;4997878;28;20112;-38
2023/10/13 10:41:00;;;;;;;7.53;2.63;;;23.10;79.00;;;23.11;38.49;97060.66;4998082;28;20030;-38
2023/10/13 10:43:42;;;;;;;5.82;2.85;;;23.00;79.30;;;23.09;38.11;97054.56;5001795;28;20301;-37
2023/10/13 10:46:17;;;;;;;10.17;2.77;;;23.00;79.20;;;23.03;38.63;97043.38;4997060;28;20033;-37
2023/10/13 10:48:43;;;;;;;6.78;2.83;;;23.00;79.40;;;23.06;38.83;97047.66;4998715;28;20044;-37
2023/10/13 10:51:23;;;;;;;5.40;2.42;;;23.00;79.90;;;23.07;38.22;97046.66;4994663;28;20389;-37
2023/10/13 10:53:51;;;;;;;7.88;3.08;;;23.00;78.40;;;23.08;37.88;97040.28;4997161;28;20030;-37
2023/10/13 10:56:36;;;;;;;9.95;3.00;;;23.00;78.10;;;23.11;38.14;97031.91;4998123;28;20046;-37
2023/10/13 10:59:04;;;;;;;8.25;2.60;;;23.10;78.60;;;23.19;38.47;97032.06;4996801;28;20026;-38
2023/10/13 11:01:46;;;;;;;7.35;2.55;;;23.10;78.90;;;23.20;37.76;97022.13;4987806;28;20513;-39
2023/10/13 11:04:18;;;;;;;6.47;2.67;;;23.20;77.80;;;23.27;38.45;97017.03;4986521;28;20041;-40
2023/10/13 11:06:54;;;;;;;7.83;2.73;;;23.20;78.40;;;23.24;39.10;97008.25;4994563;28;20042;-40
2023/10/13 11:12:06;;;;;;;8.68;2.70;;;23.20;78.30;;;23.28;39.02;96992.69;4999381;28;20490;-40
2023/10/13 11:14:32;;;;;;;8.02;3.42;;;23.20;79.50;;;23.39;38.76;96997.03;5001665;28;20038;-40
2023/10/13 11:17:13;;;;;;;6.35;2.90;;;23.30;79.10;;;23.52;39.10;96988.63;4993983;28;20081;-38
2023/10/13 11:19:43;;;;;;;6.95;2.67;;;23.40;79.60;;;23.62;38.73;96990.28;4991962;28;20026;-39
2023/10/13 11:25:12;;;;;;;7.65;2.75;;;23.70;78.90;;;23.81;37.26;96977.75;4993041;28;20037;-39
2023/10/13 11:30:58;;;;;;;11.18;2.95;;;23.90;75.10;;;23.93;37.59;96981.94;4963186;28;1040807;-40
2023/10/13 11:33:07;;;;;;;8.30;2.75;;;23.90;76.90;;;24.00;36.76;96974.09;4984224;28;20794;-39
2023/10/13 11:35:49;;;;;;;7.63;2.58;;;24.00;76.30;;;24.13;36.55;96979.97;4992756;28;20268;-41
2023/10/13 11:38:24;;;;;;;8.27;3.10;;;24.10;75.70;;;24.24;36.39;96981.59;5000906;28;20517;-40
2023/10/13 11:51:45;;;;;;;5.38;2.83;;;24.50;75.00;;;24.51;36.66;96966.34;4985203;28;20536;-38
2023/10/13 11:54:15;;;;;;;7.43;2.80;;;24.50;73.80;;;24.55;35.42;96965.94;4996181;28;20446;-38
2023/10/13 11:56:48;;;;;;;5.10;2.90;;;24.50;73.40;;;24.65;35.31;96965.00;4994764;28;20038;-38
2023/10/13 11:59:18;;;;;;;6.95;2.85;;;24.50;72.70;;;24.69;34.77;96958.28;5001649;28;20038;-39
2023/10/13 12:04:40;;;;;;;5.40;2.83;;;24.60;73.60;;;24.67;35.59;96954.91;4988395;28;20088;-38
2023/10/13 12:12:28;;;;;;;6.97;3.00;;;24.60;71.60;;;24.52;35.64;96933.03;4991352;28;20064;-38
2023/10/13 12:14:55;;;;;;;10.18;3.42;;;24.60;72.60;;;24.57;35.35;96936.13;4993293;28;20130;-38
2023/10/13 12:17:31;;;;;;;6.22;2.92;;;24.60;72.90;;;24.63;34.78;96927.41;4987213;28;20383;-38
2023/10/13 12:20:00;;;;;;;8.93;2.63;;;24.60;71.40;;;24.68;35.14;96932.34;4995117;28;20034;-38
2023/10/13 12:22:35;;;;;;;9.68;2.78;;;24.60;70.90;;;24.72;34.13;96931.03;4997937;28;20041;-38
2023/10/13 12:25:05;;;;;;;6.65;3.00;;;24.60;70.40;;;24.77;34.33;96943.03;4997503;28;20062;-38
2023/10/13 12:27:48;;;;;;;8.82;3.03;;;24.70;70.80;;;24.81;34.08;96930.06;5000724;28;20050;-38
2023/10/13 12:30:16;;;;;;;9.90;3.20;;;24.70;70.20;;;24.85;34.07;96927.91;5003507;28;20047;-38
2023/10/13 12:32:53;;;;;;;5.40;2.58;;;24.70;69.80;;;24.90;34.52;96931.81;4993491;28;20380;-38
2023/10/13 12:35:44;;;;;;;7.55;2.90;;;24.80;70.20;;;24.93;34.20;96917.19;4989790;28;20029;-38
2023/10/13 12:38:36;;;;;;;7.28;2.80;;;24.90;69.90;;;24.99;34.40;96907.63;5003881;28;20418;-38
2023/10/13 12:48:55;;;;;;;7.03;2.90;;;25.00;69.00;;;25.18;34.82;96901.13;4986068;28;20100;-38
2023/10/13 12:52:15;;;;;;;5.90;2.85;;;25.30;69.70;;;25.50;33.48;96885.13;5001472;28;20624;-40
2023/10/13 12:55:10;;;;;;;5.57;2.83;;;25.40;68.40;;;25.64;33.82;96882.81;4996337;28;20120;-39
2023/10/13 12:57:34;;;;;;;6.82;3.35;;;25.60;69.10;;;25.74;32.97;96883.53;4996999;28;20049;-40
2023/10/13 13:00:01;;;;;;;8.10;2.85;;;25.70;68.10;;;25.82;33.82;96878.13;4994879;28;20025;-38
2023/10/13 13:02:27;;;;;;;8.00;3.10;;;25.80;68.80;;;25.82;34.96;96872.72;4995619;28;20033;-38
2023/10/13 13:05:05;;;;;;;7.78;2.97;;;25.80;70.80;;;25.84;32.61;96853.66;4987376;28;20498;-40
2023/10/13 13:07:32;;;;;;;7.25;2.80;;;25.90;66.90;;;25.94;32.08;96867.06;4994193;28;20359;-40
2023/10/13 13:10:00;;;;;;;11.20;4.13;;;25.90;65.70;;;26.00;32.32;96853.72;4999690;28;20036;-41
2023/10/13 13:12:28;;;;;;;8.98;3.00;;;26.00;65.90;;;25.99;33.99;96854.75;5000409;28;20049;-38
2023/10/13 13:14:55;;;;;;;5.20;2.50;;;26.00;67.60;;;25.98;32.51;96850.34;4984238;28;20069;-39
2023/10/13 13:17:23;;;;;;;5.38;2.90;;;25.90;66.70;;;25.90;33.53;96843.03;4992288;28;20040;-37
2023/10/13 13:19:49;;;;;;;9.10;2.92;;;25.90;68.00;;;25.89;31.72;96849.44;4994524;28;20033;-38
2023/10/13 13:22:16;;;;;;;4.10;2.45;;;25.80;64.80;;;25.84;31.56;96832.06;4994667;28;20445;-37
2023/10/13 13:24:43;;;;;;;7.30;2.67;;;25.70;64.60;;;25.84;31.80;96843.72;4991132;28;20046;-40
2023/10/13 13:27:22;;;;;;;7.45;2.75;;;25.70;64.70;;;25.90;31.90;96842.22;5015221;28;20037;-38
2023/10/13 13:29:47;;;;;;;6.57;2.80;;;25.80;65.00;;;25.81;31.46;96835.94;4985896;28;20061;-38
2023/10/13 13:32:23;;;;;;;6.82;2.97;;;25.70;64.60;;;25.83;31.30;96819.56;4990684;28;20133;-40
2023/10/13 13:35:05;;;;;;;6.20;2.47;;;25.70;63.50;;;25.93;30.60;96828.38;4990228;28;20041;-39
2023/10/13 13:37:31;;;;;;;7.80;3.37;;;25.80;62.70;;;25.99;30.91;96824.19;4998244;28;20735;-39
2023/10/13 13:40:14;;;;;;;13.20;3.08;;;25.80;63.20;;;25.99;31.02;96814.22;4990992;28;20057;-39
2023/10/13 13:42:44;;;;;;;7.80;2.92;;;25.90;63.10;;;26.01;30.41;96816.75;4999158;28;20032;-38
2023/10/13 13:45:27;;;;;;;8.40;3.50;;;25.90;62.10;;;25.98;31.30;96808.97;4996204;28;20486;-39
2023/10/13 13:47:53;;;;;;;5.07;3.03;;;25.90;64.20;;;25.91;30.73;96803.34;4987174;28;20635;-41